createdAt,value
2023-05-15T00:00:06.870Z,96194.31
2023-05-15T00:02:36.131Z,96188.38
2023-05-15T00:05:04.555Z,96194.97
2023-05-15T00:07:32.647Z,96192.84
2023-05-15T00:10:00.378Z,96179.78
2023-05-15T00:12:28.851Z,96190.69
2023-05-15T00:14:56.655Z,96177.63
2023-05-15T00:17:24.389Z,96173.56
2023-05-15T00:19:57.532Z,96166.59
2023-05-15T00:22:25.917Z,96140.13
2023-05-15T00:24:53.755Z,96161.53
2023-05-15T00:27:21.525Z,96158.41
2023-05-15T00:29:49.264Z,96173.25
2023-05-15T00:32:16.966Z,96163.28
2023-05-15T00:34:44.713Z,96161.72
2023-05-15T00:37:13.906Z,96165.56
2023-05-15T00:39:41.592Z,96173.84
2023-05-15T00:42:10.257Z,96171.91
2023-05-15T00:44:42.618Z,96185.53
2023-05-15T00:47:12.108Z,96170.44
2023-05-15T00:49:40.012Z,96176.28
2023-05-15T00:52:08.762Z,96171.25
2023-05-15T00:54:38.189Z,96166.56
2023-05-15T00:57:07.177Z,96168.34
2023-05-15T00:59:35.747Z,96170.16
2023-05-15T01:02:04.139Z,96157.75
2023-05-15T01:04:32.044Z,96167.94
2023-05-15T01:07:00.046Z,96163.66
2023-05-15T01:09:31.279Z,96174.84
2023-05-15T01:12:02.026Z,96169.41
2023-05-15T01:14:29.710Z,96165.19
2023-05-15T01:16:57.476Z,96170.16
2023-05-15T01:19:26.010Z,96167.53
2023-05-15T01:22:23.645Z,96172.34
2023-05-15T01:25:09.146Z,96165.28
2023-05-15T01:27:43.859Z,96153.19
2023-05-15T01:30:17.924Z,96151.22
2023-05-15T01:32:55.516Z,96170.34
2023-05-15T01:35:29.962Z,96171.78
2023-05-15T01:38:20.309Z,96165.00
2023-05-15T01:40:49.660Z,96165.09
2023-05-15T01:43:23.338Z,96167.34
2023-05-15T01:45:51.215Z,96164.72
2023-05-15T01:48:21.093Z,96170.44
2023-05-15T01:50:52.706Z,96181.22
2023-05-15T01:53:21.732Z,96184.44
2023-05-15T01:55:50.661Z,96182.25
2023-05-15T01:58:20.310Z,96180.41
2023-05-15T02:00:49.859Z,96190.78
2023-05-15T02:03:18.420Z,96135.13
2023-05-15T02:05:48.084Z,96198.47
2023-05-15T02:08:16.720Z,96187.69
2023-05-15T02:10:44.698Z,96168.88
2023-05-15T02:13:14.767Z,96195.00
2023-05-15T02:15:43.923Z,96180.25
2023-05-15T02:18:12.197Z,96180.91
2023-05-15T02:20:39.925Z,96185.09
2023-05-15T02:23:08.713Z,96165.50
2023-05-15T02:26:02.552Z,96132.22
2023-05-15T02:28:39.904Z,96158.03
2023-05-15T02:31:15.466Z,96108.88
2023-05-15T02:33:52.570Z,96115.16
2023-05-15T02:36:24.593Z,96122.38
2023-05-15T02:38:53.168Z,96134.34
2023-05-15T02:41:22.077Z,96142.81
2023-05-15T02:43:52.936Z,96147.81
2023-05-15T02:46:24.477Z,96146.91
2023-05-15T02:48:53.628Z,96144.81
2023-05-15T02:51:22.117Z,96147.38
2023-05-15T02:53:50.471Z,96149.91
2023-05-15T02:56:18.204Z,96146.34
2023-05-15T02:58:46.308Z,96132.13
2023-05-15T03:01:14.214Z,96139.69
2023-05-15T03:03:43.324Z,96122.72
2023-05-15T03:06:11.130Z,96129.13
2023-05-15T03:08:38.894Z,96141.84
2023-05-15T03:11:06.828Z,96139.13
2023-05-15T03:13:34.545Z,96138.09
2023-05-15T03:16:02.313Z,96152.78
2023-05-15T03:18:30.129Z,96151.09
2023-05-15T03:20:59.225Z,96145.28
2023-05-15T03:23:27.178Z,96146.25
2023-05-15T03:25:55.251Z,96147.63
2023-05-15T03:28:22.938Z,96137.31
2023-05-15T03:30:50.674Z,96109.19
2023-05-15T03:33:18.406Z,96134.53
2023-05-15T03:35:46.156Z,96121.56
2023-05-15T03:38:15.413Z,96151.16
2023-05-15T03:40:43.139Z,96145.06
2023-05-15T03:43:11.520Z,96152.38
2023-05-15T03:45:40.141Z,96148.91
2023-05-15T03:48:08.230Z,96138.56
2023-05-15T03:50:36.137Z,96150.03
2023-05-15T03:53:03.920Z,96153.91
2023-05-15T03:55:33.064Z,96145.41
2023-05-15T03:58:00.987Z,96147.38
2023-05-15T04:00:28.898Z,96146.34
2023-05-15T04:02:59.277Z,96156.44
2023-05-15T04:05:27.328Z,96154.97
2023-05-15T04:07:55.420Z,96158.69
2023-05-15T04:10:23.302Z,96167.47
2023-05-15T04:12:52.911Z,96156.81
2023-05-15T04:15:22.652Z,96177.97
2023-05-15T04:17:51.865Z,96179.53
2023-05-15T04:20:21.652Z,96168.72
2023-05-15T04:22:49.586Z,96179.38
2023-05-15T04:25:18.157Z,96170.16
2023-05-15T04:27:46.023Z,96165.53
2023-05-15T04:30:15.514Z,96185.56
2023-05-15T04:32:43.631Z,96176.84
2023-05-15T04:35:13.451Z,96167.84
2023-05-15T04:37:42.848Z,96181.50
2023-05-15T04:40:11.210Z,96174.03
2023-05-15T04:42:39.659Z,96175.69
2023-05-15T04:45:09.195Z,96180.25
2023-05-15T04:47:38.529Z,96171.25
2023-05-15T04:50:07.730Z,96175.31
2023-05-15T04:52:35.548Z,96176.69
2023-05-15T04:55:03.565Z,96172.84
2023-05-15T04:57:31.522Z,96171.19
2023-05-15T04:59:59.332Z,96165.50
2023-05-15T05:02:27.321Z,96167.91
2023-05-15T05:04:56.597Z,96171.09
2023-05-15T05:07:24.284Z,96150.31
2023-05-15T05:09:52.056Z,96159.34
2023-05-15T05:12:19.793Z,96175.72
2023-05-15T05:14:47.542Z,96176.16
2023-05-15T05:17:15.283Z,96179.75
2023-05-15T05:19:43.136Z,96169.03
2023-05-15T05:22:12.485Z,96170.88
2023-05-15T05:24:40.417Z,96172.38
2023-05-15T05:27:08.554Z,96178.78
2023-05-15T05:29:36.305Z,96168.28
2023-05-15T05:32:04.316Z,96174.41
2023-05-15T05:34:32.213Z,96171.56
2023-05-15T05:36:59.903Z,96128.34
2023-05-15T05:39:29.351Z,96142.13
2023-05-15T05:41:57.100Z,96170.03
2023-05-15T05:44:24.850Z,96168.91
2023-05-15T05:46:53.631Z,96162.41
2023-05-15T05:49:21.411Z,96172.72
2023-05-15T05:51:49.274Z,96170.38
2023-05-15T05:54:18.254Z,96160.09
2023-05-15T05:56:47.447Z,96179.81
2023-05-15T05:59:15.285Z,96169.59
2023-05-15T06:01:43.262Z,96170.50
2023-05-15T06:04:11.424Z,96176.19
2023-05-15T06:06:39.217Z,96172.50
2023-05-15T06:09:06.951Z,96186.81
2023-05-15T06:11:35.271Z,96205.69
2023-05-15T06:14:04.405Z,96198.16
2023-05-15T06:16:32.175Z,96193.13
2023-05-15T06:19:00.034Z,96207.41
2023-05-15T06:21:27.982Z,96195.97
2023-05-15T06:23:55.656Z,96202.25
2023-05-15T06:26:23.644Z,96207.63
2023-05-15T06:28:51.316Z,96195.59
2023-05-15T06:31:20.631Z,96211.81
2023-05-15T06:33:48.416Z,96197.94
2023-05-15T06:36:16.157Z,96195.78
2023-05-15T06:38:43.910Z,96206.38
2023-05-15T06:41:11.599Z,96206.31
2023-05-15T06:43:39.256Z,96209.81
2023-05-15T06:46:07.063Z,96217.22
2023-05-15T06:48:37.306Z,96220.06
2023-05-15T06:51:05.173Z,96197.13
2023-05-15T06:53:32.927Z,96210.28
2023-05-15T06:56:00.668Z,96225.66
2023-05-15T06:58:28.391Z,96219.19
2023-05-15T07:00:56.699Z,96216.25
2023-05-15T07:03:25.653Z,96217.63
2023-05-15T07:05:54.808Z,96215.78
2023-05-15T07:08:22.524Z,96207.88
2023-05-15T07:10:50.459Z,96213.19
2023-05-15T07:13:19.012Z,96213.13
2023-05-15T07:15:46.891Z,96206.34
2023-05-15T07:18:14.740Z,96204.72
2023-05-15T07:20:42.551Z,96206.41
2023-05-15T07:23:11.824Z,96214.44
2023-05-15T07:25:39.946Z,96190.13
2023-05-15T07:28:07.703Z,96213.63
2023-05-15T07:30:35.443Z,96213.69
2023-05-15T07:33:03.272Z,96221.94
2023-05-15T07:35:31.243Z,96223.72
2023-05-15T07:37:59.110Z,96228.66
2023-05-15T07:40:28.262Z,96225.53
2023-05-15T07:42:56.244Z,96233.00
2023-05-15T07:45:24.034Z,96234.56
2023-05-15T07:47:54.451Z,96238.97
2023-05-15T07:50:22.233Z,96238.19
2023-05-15T07:52:49.947Z,96237.44
2023-05-15T07:55:17.717Z,96233.63
2023-05-15T07:57:53.553Z,96230.34
2023-05-15T08:00:24.905Z,96233.94
2023-05-15T08:02:52.725Z,96221.59
2023-05-15T08:05:20.626Z,96224.75
2023-05-15T08:07:48.330Z,96224.69
2023-05-15T08:10:16.136Z,96228.25
2023-05-15T08:12:46.566Z,96231.88
2023-05-15T08:15:15.953Z,96219.72
2023-05-15T08:17:43.988Z,96225.44
2023-05-15T08:20:12.823Z,96220.53
2023-05-15T08:22:40.664Z,96226.16
2023-05-15T08:25:09.430Z,96221.97
2023-05-15T08:27:37.155Z,96220.69
2023-05-15T08:30:05.473Z,96214.63
2023-05-15T08:32:34.568Z,96216.84
2023-05-15T08:35:02.400Z,96218.53
2023-05-15T08:37:30.757Z,96214.06
2023-05-15T08:39:58.485Z,96211.78
2023-05-15T08:42:34.335Z,96216.91
2023-05-15T08:45:02.509Z,96198.41
2023-05-15T08:47:30.631Z,96198.00
2023-05-15T08:50:07.146Z,96200.47
2023-05-15T08:52:36.153Z,96157.00
2023-05-15T08:55:04.622Z,96187.66
2023-05-15T08:57:34.671Z,96195.25
2023-05-15T09:00:07.026Z,96153.56
2023-05-15T09:02:37.039Z,96172.31
2023-05-15T09:05:07.274Z,96173.28
2023-05-15T09:07:35.458Z,96168.38
2023-05-15T09:10:04.537Z,96181.88
2023-05-15T09:12:35.002Z,96180.81
2023-05-15T09:15:13.268Z,96179.66
2023-05-15T09:17:43.220Z,96186.84
2023-05-15T09:23:26.036Z,96180.66
2023-05-15T09:25:58.965Z,96189.03
2023-05-15T09:28:29.208Z,96192.34
2023-05-15T09:31:01.758Z,96196.22
2023-05-15T09:33:31.371Z,96192.31
2023-05-15T09:35:59.436Z,96173.94
2023-05-15T09:38:28.640Z,96156.06
2023-05-15T09:41:03.899Z,96192.16
2023-05-15T09:43:35.607Z,96192.97
2023-05-15T09:46:03.467Z,96179.47
2023-05-15T09:48:32.445Z,96184.75
2023-05-15T09:51:00.336Z,96176.19
2023-05-15T09:53:30.575Z,96194.06
2023-05-15T09:55:58.391Z,96196.19
2023-05-15T09:58:26.281Z,96185.41
2023-05-15T10:00:54.031Z,96167.16
2023-05-15T10:03:21.961Z,96161.47
2023-05-15T10:05:49.853Z,96170.56
2023-05-15T10:08:27.071Z,96162.75
2023-05-15T10:11:00.292Z,96141.81
2023-05-15T10:13:28.939Z,96159.69
2023-05-15T10:15:58.774Z,96143.31
2023-05-15T10:18:30.190Z,96154.63
2023-05-15T10:21:01.301Z,96153.28
2023-05-15T10:23:32.211Z,96137.38
2023-05-15T10:26:05.323Z,96135.59
2023-05-15T10:28:34.273Z,96141.06
2023-05-15T10:31:02.971Z,96139.50
2023-05-15T10:33:31.184Z,96130.97
2023-05-15T10:36:00.132Z,96127.19
2023-05-15T10:38:28.826Z,96138.69
2023-05-15T10:41:13.196Z,96144.03
2023-05-15T10:43:47.467Z,96125.19
2023-05-15T10:46:16.615Z,96127.00
2023-05-15T10:48:44.820Z,96118.00
2023-05-15T10:51:19.182Z,96106.13
2023-05-15T10:53:47.307Z,96108.53
2023-05-15T10:56:17.260Z,96110.00
2023-05-15T10:58:51.033Z,96104.09
2023-05-15T11:01:29.697Z,96109.94
2023-05-15T11:04:09.222Z,96093.75
2023-05-15T11:06:37.895Z,96101.47
2023-05-15T11:09:39.753Z,96106.59
2023-05-15T11:12:09.459Z,96102.44
2023-05-15T11:14:40.824Z,96109.03
2023-05-15T11:17:10.060Z,96096.44
2023-05-15T11:19:58.677Z,96095.50
2023-05-15T11:22:32.364Z,96088.94
2023-05-15T11:25:02.292Z,96085.13
2023-05-15T11:27:31.954Z,96082.00
2023-05-15T11:30:10.167Z,96072.59
2023-05-15T11:32:57.386Z,96082.47
2023-05-15T11:35:27.729Z,96059.94
2023-05-15T11:37:57.093Z,96074.06
2023-05-15T11:40:27.943Z,96049.91
2023-05-15T11:43:04.414Z,96068.19
2023-05-15T11:45:36.278Z,96069.31
2023-05-15T11:48:06.513Z,96066.16
2023-05-15T11:50:35.837Z,96055.44
2023-05-15T11:53:05.640Z,96054.59
2023-05-15T11:55:35.258Z,96048.53
2023-05-15T11:58:04.175Z,96051.50
2023-05-15T12:00:33.615Z,96039.75
2023-05-15T12:03:03.733Z,96048.03
2023-05-15T12:05:32.044Z,96045.63
2023-05-15T12:07:59.963Z,96047.72
2023-05-15T12:10:28.029Z,96048.25
2023-05-15T12:12:55.914Z,96044.69
2023-05-15T12:15:23.785Z,96058.84
2023-05-15T12:17:52.940Z,96044.84
2023-05-15T12:20:20.822Z,96044.38
2023-05-15T12:22:48.645Z,96039.59
2023-05-15T12:25:17.733Z,96051.59
2023-05-15T12:27:45.839Z,96043.41
2023-05-15T12:30:16.969Z,96048.09
2023-05-15T12:32:44.714Z,96052.69
2023-05-15T12:35:13.999Z,96047.31
2023-05-15T12:37:43.538Z,96036.47
2023-05-15T12:40:12.509Z,96039.94
2023-05-15T12:42:41.833Z,96034.03
2023-05-15T12:45:16.449Z,96042.25
2023-05-15T12:47:45.271Z,96040.09
2023-05-15T12:50:17.027Z,96030.84
2023-05-15T12:52:51.460Z,96039.25
2023-05-15T12:55:23.518Z,96043.19
2023-05-15T12:57:51.399Z,96038.53
2023-05-15T13:00:21.415Z,96020.94
2023-05-15T13:02:50.966Z,96024.00
2023-05-15T13:05:20.369Z,96021.78
2023-05-15T13:07:49.218Z,96015.31
2023-05-15T13:10:17.000Z,96010.28
2023-05-15T13:12:46.875Z,96004.09
2023-05-15T13:15:30.097Z,96006.00
2023-05-15T13:18:01.504Z,96009.63
2023-05-15T13:20:33.697Z,95995.34
2023-05-15T13:23:03.190Z,96004.94
2023-05-15T13:25:32.128Z,96003.84
2023-05-15T13:28:01.762Z,96014.13
2023-05-15T13:30:30.072Z,96005.91
2023-05-15T13:32:57.861Z,96007.41
2023-05-15T13:35:25.653Z,96003.31
2023-05-15T13:37:54.831Z,96003.25
2023-05-15T13:40:23.267Z,96004.50
2023-05-15T13:42:51.254Z,96002.34
2023-05-15T13:45:18.982Z,96015.50
2023-05-15T13:47:46.821Z,96014.97
2023-05-15T13:50:16.405Z,96013.47
2023-05-15T13:52:46.143Z,96012.19
2023-05-15T13:55:15.445Z,96016.75
2023-05-15T13:57:45.275Z,96017.31
2023-05-15T14:00:14.565Z,96033.91
2023-05-15T14:02:44.006Z,96030.63
2023-05-15T14:05:12.915Z,96033.06
2023-05-15T14:07:41.239Z,96040.13
2023-05-15T14:10:09.830Z,96040.94
2023-05-15T14:12:39.885Z,96051.34
2023-05-15T14:15:11.193Z,96055.34
2023-05-15T14:17:39.333Z,96051.50
2023-05-15T14:20:08.748Z,96051.91
2023-05-15T14:22:36.837Z,96044.03
2023-05-15T14:25:05.185Z,96051.91
2023-05-15T14:27:32.987Z,96023.00
2023-05-15T14:30:02.470Z,96024.84
2023-05-15T14:32:30.233Z,96042.75
2023-05-15T14:35:00.027Z,96039.78
2023-05-15T14:37:31.217Z,96042.97
2023-05-15T14:39:59.050Z,96050.81
2023-05-15T14:42:27.925Z,96044.63
2023-05-15T14:44:55.769Z,96048.25
2023-05-15T14:47:25.362Z,96059.16
2023-05-15T14:49:53.112Z,96052.97
2023-05-15T14:52:20.861Z,96054.94
2023-05-15T14:55:00.663Z,96043.06
2023-05-15T14:57:36.042Z,96029.06
2023-05-15T15:00:06.128Z,96043.63
2023-05-15T15:02:35.620Z,96035.44
2023-05-15T15:05:04.573Z,96038.75
2023-05-15T15:07:52.686Z,96035.47
2023-05-15T15:10:20.385Z,96050.13
2023-05-15T15:12:48.084Z,96045.28
2023-05-15T15:15:16.159Z,96042.00
2023-05-15T15:17:45.394Z,96053.31
2023-05-15T15:20:14.920Z,96055.47
2023-05-15T15:22:42.750Z,96060.34
2023-05-15T15:25:10.891Z,96048.47
2023-05-15T15:27:38.800Z,96050.28
2023-05-15T15:30:08.507Z,96057.88
2023-05-15T15:32:36.635Z,96054.88
2023-05-15T15:35:06.793Z,96050.38
2023-05-15T15:37:36.060Z,96058.41
2023-05-15T15:40:05.895Z,96057.91
2023-05-15T15:42:34.046Z,96062.97
2023-05-15T15:45:02.487Z,96060.44
2023-05-15T15:47:31.916Z,96062.69
2023-05-15T15:49:59.823Z,96052.97
2023-05-15T15:52:29.223Z,96063.59
2023-05-15T15:54:57.297Z,96069.59
2023-05-15T15:57:25.032Z,96067.25
2023-05-15T15:59:52.864Z,96070.81
2023-05-15T16:02:20.990Z,96071.34
2023-05-15T16:04:49.080Z,96071.69
2023-05-15T16:07:16.886Z,96066.72
2023-05-15T16:09:49.270Z,96067.03
2023-05-15T16:12:21.493Z,96067.84
2023-05-15T16:14:49.244Z,96071.69
2023-05-15T16:17:17.079Z,96064.69
2023-05-15T16:19:44.809Z,96068.97
2023-05-15T16:22:12.505Z,96062.50
2023-05-15T16:24:40.865Z,96059.28
2023-05-15T16:27:10.003Z,96066.56
2023-05-15T16:29:37.701Z,96069.50
2023-05-15T16:32:05.852Z,96062.53
2023-05-15T16:34:34.091Z,96067.91
2023-05-15T16:37:01.785Z,96063.06
2023-05-15T16:39:29.520Z,96068.72
2023-05-15T16:41:57.248Z,96069.25
2023-05-15T16:44:26.247Z,96074.91
2023-05-15T16:46:54.238Z,96066.84
2023-05-15T16:49:21.943Z,96071.16
2023-05-15T16:51:49.765Z,96077.34
2023-05-15T16:54:17.428Z,96071.16
2023-05-15T16:56:45.264Z,96072.75
2023-05-15T16:59:13.280Z,96071.69
2023-05-15T17:01:42.540Z,96078.16
2023-05-15T17:04:10.376Z,96076.00
2023-05-15T17:06:38.160Z,96079.59
2023-05-15T17:09:05.859Z,96069.72
2023-05-15T17:11:33.757Z,96073.50
2023-05-15T17:14:02.007Z,96085.41
2023-05-15T17:16:29.880Z,96079.19
2023-05-15T17:18:59.349Z,96081.28
2023-05-15T17:21:27.190Z,96084.81
2023-05-15T17:23:56.093Z,96091.53
2023-05-15T17:26:23.837Z,96090.97
2023-05-15T17:28:51.715Z,96097.44
2023-05-15T17:31:20.982Z,96096.13
2023-05-15T17:33:48.684Z,96089.94
2023-05-15T17:36:18.484Z,96094.25
2023-05-15T17:38:46.259Z,96092.16
2023-05-15T17:41:14.049Z,96092.94
2023-05-15T17:43:41.832Z,96093.97
2023-05-15T17:46:09.682Z,96093.19
2023-05-15T17:48:37.476Z,96098.88
2023-05-15T17:51:05.275Z,96085.09
2023-05-15T17:53:34.532Z,96099.94
2023-05-15T17:56:02.270Z,96098.50
2023-05-15T17:58:30.392Z,96091.78
2023-05-15T18:00:58.143Z,96102.50
2023-05-15T18:03:25.959Z,96095.75
2023-05-15T18:05:53.893Z,96104.00
2023-05-15T18:08:21.761Z,96105.91
2023-05-15T18:10:50.893Z,96108.06
2023-05-15T18:13:18.748Z,96113.09
2023-05-15T18:15:46.518Z,96105.19
2023-05-15T18:18:14.510Z,96115.38
2023-05-15T18:20:42.225Z,96107.47
2023-05-15T18:23:10.034Z,96111.03
2023-05-15T18:25:37.825Z,96104.78
2023-05-15T18:28:07.200Z,96105.09
2023-05-15T18:30:35.676Z,96101.81
2023-05-15T18:33:03.786Z,96095.34
2023-05-15T18:35:31.667Z,96105.59
2023-05-15T18:37:59.791Z,96101.53
2023-05-15T18:40:28.038Z,96102.81
2023-05-15T18:42:56.602Z,96107.44
2023-05-15T18:45:26.603Z,96108.19
2023-05-15T18:47:55.109Z,96111.72
2023-05-15T18:50:24.932Z,96109.00
2023-05-15T18:52:53.092Z,96105.72
2023-05-15T18:55:22.101Z,96113.75
2023-05-15T18:57:49.826Z,96115.66
2023-05-15T19:00:26.645Z,96120.81
2023-05-15T19:03:03.213Z,96118.47
2023-05-15T19:05:33.075Z,96121.28
2023-05-15T19:08:01.305Z,96129.41
2023-05-15T19:10:29.779Z,96132.59
2023-05-15T19:12:58.144Z,96125.88
2023-05-15T19:15:26.653Z,96144.50
2023-05-15T19:17:54.452Z,96143.13
2023-05-15T19:20:23.655Z,96146.94
2023-05-15T19:22:51.531Z,96152.84
2023-05-15T19:25:19.467Z,96122.75
2023-05-15T19:27:48.109Z,96146.00
2023-05-15T19:30:16.074Z,96154.56
2023-05-15T19:32:43.903Z,96141.31
2023-05-15T19:35:11.888Z,96124.56
2023-05-15T19:37:41.011Z,96159.78
2023-05-15T19:40:09.887Z,96160.72
2023-05-15T19:42:37.654Z,96171.59
2023-05-15T19:45:07.221Z,96169.31
2023-05-15T19:47:35.374Z,96172.41
2023-05-15T19:50:03.342Z,96169.72
2023-05-15T19:52:31.079Z,96173.00
2023-05-15T19:55:00.183Z,96174.31
2023-05-15T19:57:27.920Z,96172.78
2023-05-15T19:59:55.675Z,96173.25
2023-05-15T20:02:23.648Z,96168.09
2023-05-15T20:04:51.750Z,96181.00
2023-05-15T20:07:19.583Z,96188.56
2023-05-15T20:09:47.341Z,96176.59
2023-05-15T20:12:16.402Z,96183.06
2023-05-15T20:14:49.653Z,96181.94
2023-05-15T20:17:18.249Z,96184.09
2023-05-15T20:19:46.656Z,96183.56
2023-05-15T20:22:14.468Z,96177.91
2023-05-15T20:24:42.279Z,96187.88
2023-05-15T20:27:10.015Z,96187.19
2023-05-15T20:29:39.724Z,96169.09
2023-05-15T20:32:08.010Z,96185.13
2023-05-15T20:34:36.828Z,96188.13
2023-05-15T20:37:04.547Z,96191.31
2023-05-15T20:39:32.705Z,96190.25
2023-05-15T20:42:00.905Z,96197.09
2023-05-15T20:44:29.914Z,96193.50
2023-05-15T20:46:59.039Z,96197.66
2023-05-15T20:49:26.768Z,96195.31
2023-05-15T20:51:54.823Z,96193.44
2023-05-15T20:54:22.564Z,96196.03
2023-05-15T20:56:50.574Z,96203.84
2023-05-15T20:59:18.362Z,96202.63
2023-05-15T21:01:46.134Z,96204.25
2023-05-15T21:04:15.436Z,96199.09
2023-05-15T21:06:43.340Z,96195.03
2023-05-15T21:09:11.261Z,96195.25
2023-05-15T21:11:38.947Z,96194.97
2023-05-15T21:14:07.399Z,96193.28
2023-05-15T21:16:35.346Z,96187.47
2023-05-15T21:19:03.225Z,96181.88
2023-05-15T21:21:32.420Z,96189.75
2023-05-15T21:24:02.476Z,96183.94
2023-05-15T21:26:30.322Z,96189.78
2023-05-15T21:28:59.035Z,96185.56
2023-05-15T21:31:27.408Z,96179.06
2023-05-15T21:33:55.926Z,96178.66
2023-05-15T21:36:23.935Z,96176.59
2023-05-15T21:38:53.036Z,96177.72
2023-05-15T21:41:20.859Z,96180.41
2023-05-15T21:43:48.620Z,96179.53
2023-05-15T21:46:16.630Z,96181.47
2023-05-15T21:48:44.391Z,96195.56
2023-05-15T21:51:12.290Z,96184.56
2023-05-15T21:53:40.074Z,96181.50
2023-05-15T21:56:09.743Z,96181.19
2023-05-15T21:58:37.552Z,96168.34
2023-05-15T22:01:05.371Z,96179.19
2023-05-15T22:03:33.288Z,96176.47
2023-05-15T22:06:01.064Z,96176.97
2023-05-15T22:08:29.154Z,96167.25
2023-05-15T22:10:57.007Z,96165.53
2023-05-15T22:13:26.269Z,96157.63
2023-05-15T22:15:54.148Z,96167.50
2023-05-15T22:18:23.161Z,96159.78
2023-05-15T22:20:52.346Z,96166.38
2023-05-15T22:23:20.062Z,96164.56
2023-05-15T22:25:49.074Z,96161.41
2023-05-15T22:28:16.963Z,96127.38
2023-05-15T22:30:46.194Z,96160.38
2023-05-15T22:33:14.051Z,96155.03
2023-05-15T22:35:41.849Z,96168.75
2023-05-15T22:38:09.747Z,96162.00
2023-05-15T22:40:37.501Z,96162.50
2023-05-15T22:43:05.274Z,96165.75
2023-05-15T22:45:33.065Z,96170.53
2023-05-15T22:48:02.582Z,96161.84
2023-05-15T22:50:30.459Z,96158.19
2023-05-15T22:52:58.177Z,96162.16
2023-05-15T22:55:25.976Z,96169.78
2023-05-15T22:57:53.736Z,96174.03
2023-05-15T23:00:21.723Z,96173.25
2023-05-15T23:02:49.525Z,96174.50
2023-05-15T23:05:18.891Z,96156.72
2023-05-15T23:07:46.730Z,96172.31
2023-05-15T23:10:14.562Z,96164.19
2023-05-15T23:12:42.528Z,96158.03
2023-05-15T23:15:11.301Z,96157.56
2023-05-15T23:17:40.401Z,96158.84
2023-05-15T23:20:10.536Z,96158.84
2023-05-15T23:22:40.411Z,96165.81
2023-05-15T23:25:08.781Z,96158.44
2023-05-15T23:27:36.882Z,96154.69
2023-05-15T23:30:05.628Z,96147.66
2023-05-15T23:32:33.419Z,96155.66
2023-05-15T23:35:01.174Z,96151.94
2023-05-15T23:37:28.974Z,96136.78
2023-05-15T23:39:58.143Z,96149.59
2023-05-15T23:42:25.973Z,96151.38
2023-05-15T23:44:53.795Z,96158.66
2023-05-15T23:47:21.611Z,96153.97
2023-05-15T23:49:49.648Z,96147.09
2023-05-15T23:52:17.412Z,96135.31
2023-05-15T23:54:45.220Z,96150.56
2023-05-15T23:57:15.504Z,96150.78
2023-05-15T23:59:43.282Z,96155.81
